createdAt,value
2019-06-07T00:05:02.130Z,0
2019-06-07T00:05:42.699Z,0
2019-06-07T00:06:25.140Z,0
2019-06-07T00:07:03.826Z,0
2019-06-07T00:07:44.425Z,0
2019-06-07T00:08:28.788Z,0
2019-06-07T00:09:08.054Z,0
2019-06-07T00:09:46.134Z,0
2019-06-07T00:16:31.976Z,0
2019-06-07T00:17:14.009Z,0
2019-06-07T00:17:53.111Z,0
2019-06-07T00:18:33.662Z,0
2019-06-07T00:19:16.157Z,0
2019-06-07T00:19:54.831Z,0
2019-06-07T00:20:35.395Z,0
2019-06-07T00:21:17.704Z,0
2019-06-07T00:27:24.034Z,0
2019-06-07T00:28:04.598Z,0
2019-06-07T00:28:45.156Z,0
2019-06-07T00:29:25.720Z,0
2019-06-07T00:30:29.456Z,0
2019-06-07T00:30:51.866Z,0
2019-06-07T00:31:27.457Z,0
2019-06-07T00:32:09.259Z,0
2019-06-07T00:32:48.598Z,0
2019-06-07T00:38:53.878Z,0
2019-06-07T00:39:34.457Z,0
2019-06-07T00:40:20.475Z,0
2019-06-07T00:40:55.629Z,0
2019-06-07T00:41:36.185Z,0
2019-06-07T00:42:19.291Z,0
2019-06-07T00:42:57.336Z,0
2019-06-07T00:43:37.910Z,0
2019-06-07T00:44:21.410Z,0
2019-06-07T00:51:04.325Z,0
2019-06-07T00:51:50.267Z,0
2019-06-07T00:53:29.705Z,0
2019-06-07T00:53:46.589Z,0
2019-06-07T00:54:27.199Z,0
2019-06-07T00:55:07.748Z,0
2019-06-07T00:55:48.316Z,0
2019-06-07T00:56:28.868Z,0
2019-06-07T01:04:27.246Z,0
2019-06-07T01:05:07.291Z,0
2019-06-07T01:05:47.862Z,0
2019-06-07T01:06:28.455Z,0
2019-06-07T01:09:51.490Z,0
2019-06-07T01:10:52.105Z,0
2019-06-07T01:11:13.545Z,0
2019-06-07T01:11:53.230Z,0
2019-06-07T01:12:33.786Z,0
2019-06-07T01:13:15.386Z,0
2019-06-07T01:13:54.900Z,0
2019-06-07T01:14:35.472Z,0
2019-06-07T01:15:17.667Z,0
2019-06-07T01:21:24.640Z,0
2019-06-07T01:22:02.015Z,0
2019-06-07T01:22:42.525Z,0
2019-06-07T01:23:59.216Z,0
2019-06-07T01:24:11.763Z,0
2019-06-07T01:24:44.209Z,0
2019-06-07T01:25:26.281Z,0
2019-06-07T01:26:05.352Z,0
2019-06-07T01:26:45.916Z,0
2019-06-07T01:33:49.734Z,0
2019-06-07T01:34:12.195Z,0
2019-06-07T01:34:52.729Z,0
2019-06-07T01:35:33.289Z,0
2019-06-07T01:36:13.887Z,0
2019-06-07T01:36:54.489Z,0
2019-06-07T01:37:35.068Z,0
2019-06-07T01:38:17.108Z,0
2019-06-07T01:44:23.918Z,0
2019-06-07T01:45:02.198Z,0
2019-06-07T01:45:42.679Z,0
2019-06-07T01:46:26.418Z,0
2019-06-07T01:47:03.809Z,0
2019-06-07T01:47:44.381Z,0
2019-06-07T01:48:29.595Z,0
2019-06-07T01:49:05.562Z,0
2019-06-07T01:49:46.169Z,0
2019-06-07T01:55:51.430Z,0
2019-06-07T01:56:31.972Z,0
2019-06-07T01:57:30.875Z,0
2019-06-07T01:57:53.098Z,0
2019-06-07T01:58:33.670Z,0
2019-06-07T01:59:14.244Z,0
2019-06-07T01:59:54.805Z,0
2019-06-07T02:00:35.382Z,0
2019-06-07T02:01:15.946Z,0
2019-06-07T02:08:01.666Z,0
2019-06-07T02:08:42.222Z,0
2019-06-07T02:09:23.489Z,0
2019-06-07T02:10:03.393Z,0
2019-06-07T02:10:44.007Z,0
2019-06-07T02:11:26.530Z,0
2019-06-07T02:12:24.974Z,0
2019-06-07T02:12:45.673Z,0
2019-06-07T02:13:28.699Z,0
2019-06-07T02:19:33.206Z,0
2019-06-07T02:20:11.981Z,0
2019-06-07T02:20:52.536Z,0
2019-06-07T02:21:34.297Z,0
2019-06-07T02:22:13.713Z,0
2019-06-07T02:22:54.266Z,0
2019-06-07T02:23:34.840Z,0
2019-06-07T02:24:15.421Z,0
2019-06-07T02:28:25.738Z,0
2019-06-07T02:28:42.884Z,0
2019-06-07T02:29:16.462Z,0
2019-06-07T02:29:57.004Z,0
2019-06-07T02:34:00.356Z,0
2019-06-07T02:34:40.919Z,0
2019-06-07T02:35:23.340Z,0
2019-06-07T02:36:02.052Z,0
2019-06-07T02:36:42.609Z,0
2019-06-07T02:37:24.768Z,0
2019-06-07T02:38:03.741Z,0
2019-06-07T02:38:44.295Z,0
2019-06-07T02:39:26.079Z,0
2019-06-07T02:45:36.352Z,0
2019-06-07T02:46:24.955Z,0
2019-06-07T02:46:51.214Z,0
2019-06-07T02:47:35.838Z,0
2019-06-07T02:48:12.338Z,0
2019-06-07T02:48:52.903Z,0
2019-06-07T02:49:40.458Z,0
2019-06-07T02:50:14.043Z,0
2019-06-07T02:50:54.609Z,0
2019-06-07T02:57:00.247Z,0
2019-06-07T02:57:42.044Z,0
2019-06-07T02:58:21.367Z,0
2019-06-07T02:59:01.943Z,0
2019-06-07T03:00:04.976Z,5
2019-06-07T03:01:08.782Z,5
2019-06-07T03:01:44.195Z,5
2019-06-07T03:02:26.408Z,5
2019-06-07T03:08:30.812Z,5
2019-06-07T03:09:10.520Z,5
2019-06-07T03:09:51.074Z,5
2019-06-07T03:10:32.187Z,5
2019-06-07T03:11:12.192Z,10
2019-06-07T03:11:52.758Z,10
2019-06-07T03:12:34.027Z,10
2019-06-07T03:13:13.942Z,10
2019-06-07T03:13:54.727Z,10
2019-06-07T03:20:40.389Z,10
2019-06-07T03:21:20.963Z,10
2019-06-07T03:22:01.519Z,10
2019-06-07T03:22:42.079Z,10
2019-06-07T03:23:22.658Z,10
2019-06-07T03:24:03.216Z,15
2019-06-07T03:24:44.122Z,15
2019-06-07T03:25:24.331Z,15
2019-06-07T03:26:04.902Z,15
2019-06-07T03:32:10.062Z,15
2019-06-07T03:32:52.049Z,15
2019-06-07T03:33:33.179Z,15
2019-06-07T03:34:11.760Z,15
2019-06-07T03:34:52.325Z,15
2019-06-07T03:35:34.669Z,15
2019-06-07T03:36:23.651Z,15
2019-06-07T03:36:54.043Z,15
2019-06-07T03:37:39.482Z,15
2019-06-07T03:44:20.241Z,15
2019-06-07T03:45:00.829Z,15
2019-06-07T03:45:41.782Z,15
2019-06-07T03:46:21.969Z,20
2019-06-07T03:47:02.547Z,20
2019-06-07T03:47:43.414Z,20
2019-06-07T03:48:23.649Z,25
2019-06-07T03:49:04.207Z,25
2019-06-07T03:49:44.767Z,30
2019-06-07T03:55:49.894Z,35
2019-06-07T03:56:31.823Z,35
2019-06-07T03:57:11.069Z,35
2019-06-07T03:58:37.692Z,30
2019-06-07T03:59:12.767Z,30
2019-06-07T03:59:53.323Z,30
2019-06-07T04:00:36.623Z,30
2019-06-07T04:01:14.440Z,30
2019-06-07T04:08:00.154Z,35
2019-06-07T04:08:41.984Z,35
2019-06-07T04:09:21.327Z,35
2019-06-07T04:10:01.888Z,35
2019-06-07T04:10:57.807Z,40
2019-06-07T04:11:23.019Z,40
2019-06-07T04:12:03.604Z,40
2019-06-07T04:12:44.445Z,40
2019-06-07T04:13:24.722Z,40
2019-06-07T04:19:32.066Z,50
2019-06-07T04:20:10.683Z,50
2019-06-07T04:20:51.252Z,50
2019-06-07T04:21:34.319Z,50
2019-06-07T04:22:12.396Z,50
2019-06-07T04:22:52.962Z,55
2019-06-07T04:23:35.775Z,55
2019-06-07T04:24:14.126Z,60
2019-06-07T04:24:54.679Z,60
2019-06-07T04:31:42.717Z,70
2019-06-07T04:32:20.903Z,70
2019-06-07T04:33:01.469Z,75
2019-06-07T04:33:43.649Z,75
2019-06-07T04:34:22.609Z,75
2019-06-07T04:35:03.215Z,75
2019-06-07T04:35:45.178Z,80
2019-06-07T04:36:40.239Z,80
2019-06-07T04:37:04.881Z,80
2019-06-07T04:43:09.968Z,85
2019-06-07T04:43:50.539Z,85
2019-06-07T04:44:31.202Z,85
2019-06-07T04:45:32.318Z,85
2019-06-07T04:45:52.226Z,85
2019-06-07T04:46:35.066Z,85
2019-06-07T04:47:13.351Z,85
2019-06-07T04:47:53.961Z,85
2019-06-07T04:48:35.849Z,85
2019-06-07T04:55:20.247Z,100
2019-06-07T04:56:00.805Z,100
2019-06-07T04:56:44.215Z,100
2019-06-07T04:57:22.009Z,105
2019-06-07T04:58:02.513Z,105
2019-06-07T04:58:43.303Z,110
2019-06-07T05:00:00.722Z,110
2019-06-07T05:00:22.523Z,110
2019-06-07T05:00:53.876Z,110
2019-06-07T05:06:50.989Z,150
2019-06-07T05:07:32.901Z,115
2019-06-07T05:08:27.338Z,115
2019-06-07T05:08:52.727Z,115
2019-06-07T05:09:35.440Z,115
2019-06-07T05:10:13.884Z,115
2019-06-07T05:10:54.456Z,115
2019-06-07T05:17:00.013Z,390
2019-06-07T05:17:43.415Z,470
2019-06-07T05:18:21.130Z,580
2019-06-07T05:19:01.703Z,685
2019-06-07T05:19:44.414Z,755
2019-06-07T05:20:22.866Z,780
2019-06-07T05:21:03.446Z,815
2019-06-07T05:22:02.292Z,920
2019-06-07T05:22:24.586Z,995
2019-06-07T05:29:10.311Z,1395
2019-06-07T05:30:08.684Z,1405
2019-06-07T05:31:04.282Z,1325
2019-06-07T05:31:12.055Z,1380
2019-06-07T05:31:52.620Z,1425
2019-06-07T05:32:34.901Z,1440
2019-06-07T05:33:13.753Z,1350
2019-06-07T05:33:54.326Z,1350
2019-06-07T05:34:36.831Z,1395
2019-06-07T05:40:42.519Z,1435
2019-06-07T05:41:20.673Z,1445
2019-06-07T05:42:01.238Z,1460
2019-06-07T05:42:45.913Z,1505
2019-06-07T05:43:22.373Z,1500
2019-06-07T05:44:12.414Z,1485
2019-06-07T05:44:45.219Z,1475
2019-06-07T05:45:24.085Z,1480
2019-06-07T05:46:04.648Z,1530
2019-06-07T05:52:50.421Z,1605
2019-06-07T05:53:31.623Z,1550
2019-06-07T05:54:11.564Z,1530
2019-06-07T05:54:52.139Z,1545
2019-06-07T05:55:32.775Z,1530
2019-06-07T05:56:14.087Z,1550
2019-06-07T05:56:53.899Z,1545
2019-06-07T05:57:37.573Z,1505
2019-06-07T06:04:20.233Z,1550
2019-06-07T06:05:00.818Z,1570
2019-06-07T06:05:45.625Z,1595
2019-06-07T06:06:21.968Z,1575
2019-06-07T06:07:02.543Z,1560
2019-06-07T06:07:49.559Z,1515
2019-06-07T06:08:23.697Z,1535
2019-06-07T06:09:13.640Z,1540
2019-06-07T06:09:46.096Z,1565
2019-06-07T06:15:58.876Z,1630
2019-06-07T06:16:30.633Z,1630
2019-06-07T06:17:11.211Z,1685
2019-06-07T06:17:53.708Z,1715
2019-06-07T06:18:32.347Z,1710
2019-06-07T06:19:12.932Z,1710
2019-06-07T06:19:53.747Z,1670
2019-06-07T06:20:54.355Z,1655
2019-06-07T06:24:13.575Z,1765
2019-06-07T06:25:29.622Z,1745
2019-06-07T06:25:34.904Z,1695
2019-06-07T06:26:15.312Z,1705
2019-06-07T06:29:40.130Z,1720
2019-06-07T06:30:18.823Z,1725
2019-06-07T06:30:59.392Z,1735
2019-06-07T06:31:41.915Z,1675
2019-06-07T06:33:01.253Z,1620
2019-06-07T06:33:43.339Z,1655
2019-06-07T06:34:22.351Z,1630
2019-06-07T06:35:02.928Z,1605
2019-06-07T06:41:15.590Z,1780
2019-06-07T06:41:58.296Z,1800
2019-06-07T06:42:29.279Z,1855
2019-06-07T06:43:09.845Z,1855
2019-06-07T06:43:52.464Z,1830
2019-06-07T06:44:30.982Z,1790
2019-06-07T06:45:11.558Z,1740
2019-06-07T06:45:52.151Z,1660
2019-06-07T06:46:38.467Z,1620
2019-06-07T06:53:19.001Z,1820
2019-06-07T06:54:00.281Z,1750
2019-06-07T06:54:46.486Z,1815
2019-06-07T06:55:21.505Z,1800
2019-06-07T06:56:02.087Z,1845
2019-06-07T06:56:44.872Z,1860
2019-06-07T07:03:56.380Z,1675
2019-06-07T07:04:12.604Z,1575
2019-06-07T07:04:52.483Z,1490
2019-06-07T07:05:30.102Z,1375
2019-06-07T07:06:25.046Z,1280
2019-06-07T07:06:53.375Z,1210
2019-06-07T07:07:31.873Z,1150
2019-06-07T07:08:12.455Z,1075
2019-06-07T07:08:53.453Z,955
2019-06-07T07:14:58.478Z,675
2019-06-07T07:15:39.069Z,645
2019-06-07T07:16:19.638Z,625
2019-06-07T07:17:00.219Z,625
2019-06-07T07:17:53.558Z,625
2019-06-07T07:18:21.362Z,620
2019-06-07T07:19:01.941Z,610
2019-06-07T07:19:44.967Z,595
2019-06-07T07:20:23.064Z,585
2019-06-07T07:26:28.224Z,585
2019-06-07T07:27:08.781Z,585
2019-06-07T07:27:51.648Z,575
2019-06-07T07:28:29.965Z,570
2019-06-07T07:29:10.544Z,570
2019-06-07T07:30:04.783Z,565
2019-06-07T07:30:36.416Z,565
2019-06-07T07:31:12.261Z,560
2019-06-07T07:31:55.795Z,555
2019-06-07T07:38:38.648Z,540
2019-06-07T07:39:19.230Z,545
2019-06-07T07:40:09.394Z,535
2019-06-07T07:41:02.747Z,535
2019-06-07T07:41:20.957Z,535
2019-06-07T07:42:18.573Z,530
2019-06-07T07:42:43.287Z,535
2019-06-07T07:43:22.669Z,530
2019-06-07T07:50:08.412Z,535
2019-06-07T07:50:53.153Z,535
2019-06-07T07:51:29.548Z,535
2019-06-07T07:52:10.117Z,530
2019-06-07T07:52:55.816Z,525
2019-06-07T07:53:47.459Z,515
2019-06-07T07:54:11.897Z,510
2019-06-07T07:54:56.187Z,505
2019-06-07T07:55:33.061Z,495
2019-06-07T08:01:38.234Z,360
2019-06-07T08:02:18.814Z,360
2019-06-07T08:03:04.051Z,355
2019-06-07T08:03:39.961Z,360
2019-06-07T08:04:29.383Z,340
2019-06-07T08:05:39.868Z,265
2019-06-07T08:05:43.195Z,215
2019-06-07T08:06:22.317Z,345
2019-06-07T08:07:02.889Z,350
2019-06-07T08:13:21.920Z,330
2019-06-07T08:13:41.887Z,335
2019-06-07T08:14:22.554Z,335
2019-06-07T08:15:03.961Z,335
2019-06-07T08:16:26.173Z,320
2019-06-07T08:17:07.259Z,315
2019-06-07T08:17:51.323Z,310
2019-06-07T08:18:29.222Z,310
2019-06-07T08:24:00.060Z,285
2019-06-07T08:24:36.394Z,285
2019-06-07T08:25:16.960Z,280
2019-06-07T08:26:00.996Z,280
2019-06-07T08:26:38.081Z,275
2019-06-07T08:27:26.201Z,275
2019-06-07T08:27:59.218Z,270
2019-06-07T08:28:39.778Z,270
2019-06-07T08:29:20.346Z,270
2019-06-07T08:36:19.138Z,235
2019-06-07T08:36:46.643Z,235
2019-06-07T08:38:07.729Z,235
2019-06-07T08:38:23.033Z,240
2019-06-07T08:38:52.806Z,240
2019-06-07T08:39:28.927Z,245
2019-06-07T08:40:09.632Z,245
2019-06-07T08:40:56.636Z,240
2019-06-07T08:47:12.247Z,225
2019-06-07T08:47:35.916Z,225
2019-06-07T08:48:27.353Z,225
2019-06-07T08:49:01.279Z,225
2019-06-07T08:49:37.674Z,225
2019-06-07T08:50:18.201Z,225
2019-06-07T08:51:06.210Z,220
2019-06-07T08:51:39.342Z,220
2019-06-07T08:52:19.907Z,215
2019-06-07T08:59:10.994Z,195
2019-06-07T08:59:46.217Z,195
2019-06-07T09:00:43.484Z,200
2019-06-07T09:01:08.813Z,210
2019-06-07T09:01:47.923Z,170
2019-06-07T09:02:28.543Z,205
2019-06-07T09:03:09.112Z,210
2019-06-07T09:03:49.678Z,205
2019-06-07T09:04:30.236Z,200
2019-06-07T09:10:35.344Z,185
2019-06-07T09:11:15.910Z,180
2019-06-07T09:11:57.265Z,180
2019-06-07T09:12:37.054Z,175
2019-06-07T09:13:17.655Z,175
2019-06-07T09:14:02.113Z,175
2019-06-07T09:14:58.594Z,175
2019-06-07T09:15:23.103Z,170
2019-06-07T09:16:04.648Z,175
2019-06-07T09:22:45.647Z,175
2019-06-07T09:23:26.211Z,170
2019-06-07T09:24:11.140Z,170
2019-06-07T09:24:47.358Z,165
2019-06-07T09:25:27.928Z,165
2019-06-07T09:26:16.474Z,165
2019-06-07T09:26:49.062Z,165
2019-06-07T09:27:29.636Z,165
2019-06-07T09:28:18.682Z,160
2019-06-07T09:34:15.740Z,165
2019-06-07T09:34:59.985Z,165
2019-06-07T09:35:36.461Z,160
2019-06-07T09:36:17.030Z,160
2019-06-07T09:37:03.302Z,155
2019-06-07T09:38:04.091Z,155
2019-06-07T09:38:25.361Z,155
2019-06-07T09:39:02.473Z,155
2019-06-07T09:39:39.873Z,155
2019-06-07T09:46:25.747Z,145
2019-06-07T09:47:21.932Z,145
2019-06-07T09:47:46.870Z,150
2019-06-07T09:49:09.585Z,150
2019-06-07T09:49:15.131Z,150
2019-06-07T09:49:48.571Z,150
2019-06-07T09:50:29.188Z,150
2019-06-07T09:51:18.980Z,150
2019-06-07T09:51:50.283Z,150
2019-06-07T09:57:56.491Z,140
2019-06-07T09:58:53.426Z,150
2019-06-07T09:59:16.547Z,145
2019-06-07T09:59:57.846Z,145
2019-06-07T10:00:41.172Z,145
2019-06-07T10:01:18.248Z,135
2019-06-07T10:02:00.652Z,125
2019-06-07T10:02:39.408Z,120
2019-06-07T10:03:22.157Z,120
2019-06-07T10:10:20.756Z,145
2019-06-07T10:10:46.170Z,140
2019-06-07T10:11:26.722Z,140
2019-06-07T10:12:08.517Z,155
2019-06-07T10:12:47.887Z,135
2019-06-07T10:13:28.480Z,140
2019-06-07T10:14:09.253Z,135
2019-06-07T10:14:49.831Z,140
2019-06-07T10:15:30.393Z,160
2019-06-07T10:21:35.455Z,165
2019-06-07T10:22:16.020Z,170
2019-06-07T10:22:56.593Z,170
2019-06-07T10:23:37.157Z,170
2019-06-07T10:24:17.726Z,170
2019-06-07T10:24:59.576Z,165
2019-06-07T10:25:38.878Z,165
2019-06-07T10:26:19.448Z,145
2019-06-07T10:27:00.003Z,170
2019-06-07T10:32:25.771Z,125
2019-06-07T10:33:06.803Z,125
2019-06-07T10:33:46.896Z,125
2019-06-07T10:34:27.451Z,125
2019-06-07T10:35:09.571Z,125
2019-06-07T10:35:48.595Z,125
2019-06-07T10:36:29.172Z,125
2019-06-07T10:37:11.925Z,140
2019-06-07T10:37:50.341Z,120
2019-06-07T10:43:55.568Z,130
2019-06-07T10:44:36.140Z,130
2019-06-07T10:45:16.704Z,130
2019-06-07T10:45:57.284Z,100
2019-06-07T10:46:37.861Z,100
2019-06-07T10:47:18.438Z,100
2019-06-07T10:47:59.009Z,105
2019-06-07T10:48:39.567Z,110
2019-06-07T10:49:20.156Z,130
2019-06-07T10:56:06.923Z,120
2019-06-07T10:56:46.410Z,125
2019-06-07T10:57:27.002Z,115
2019-06-07T10:58:09.074Z,125
2019-06-07T10:58:48.138Z,125
2019-06-07T10:59:28.732Z,140
2019-06-07T11:00:09.488Z,120
2019-06-07T11:00:49.885Z,120
2019-06-07T11:07:35.856Z,110
2019-06-07T11:08:16.453Z,110
2019-06-07T11:08:57.019Z,120
2019-06-07T11:09:37.591Z,115
2019-06-07T11:10:20.084Z,135
2019-06-07T11:10:58.709Z,140
2019-06-07T11:11:39.291Z,135
2019-06-07T11:12:19.854Z,135
2019-06-07T11:19:05.999Z,125
2019-06-07T11:19:46.207Z,125
2019-06-07T11:20:26.790Z,125
2019-06-07T11:21:07.933Z,130
2019-06-07T11:21:47.934Z,130
2019-06-07T11:22:28.569Z,125
2019-06-07T11:23:10.088Z,125
2019-06-07T11:23:49.745Z,120
2019-06-07T11:24:30.292Z,110
2019-06-07T11:30:35.508Z,105
2019-06-07T11:31:16.088Z,90
2019-06-07T11:31:56.654Z,100
2019-06-07T11:32:37.292Z,85
2019-06-07T11:33:18.842Z,90
2019-06-07T11:33:58.423Z,85
2019-06-07T11:34:38.991Z,85
2019-06-07T11:35:19.558Z,85
2019-06-07T11:36:00.143Z,85
2019-06-07T11:42:45.838Z,125
2019-06-07T11:43:26.400Z,120
2019-06-07T11:44:06.989Z,120
2019-06-07T11:44:56.564Z,110
2019-06-07T11:45:28.140Z,115
2019-06-07T11:46:08.884Z,90
2019-06-07T11:46:49.266Z,110
2019-06-07T11:47:29.852Z,115
2019-06-07T11:54:16.169Z,115
2019-06-07T11:54:56.129Z,125
2019-06-07T11:55:36.691Z,125
2019-06-07T11:56:18.109Z,125
2019-06-07T11:56:57.895Z,125
2019-06-07T11:57:38.401Z,120
2019-06-07T11:58:21.675Z,120
2019-06-07T11:58:59.532Z,120
2019-06-07T11:59:40.102Z,115
2019-06-07T12:05:45.287Z,115
2019-06-07T12:06:25.848Z,115
2019-06-07T12:07:10.160Z,115
2019-06-07T12:07:46.988Z,115
2019-06-07T12:08:27.569Z,115
2019-06-07T12:09:08.587Z,115
2019-06-07T12:09:56.208Z,115
2019-06-07T12:10:41.736Z,115
2019-06-07T12:11:10.102Z,120
2019-06-07T12:11:50.408Z,115
2019-06-07T12:17:55.796Z,120
2019-06-07T12:18:36.373Z,120
2019-06-07T12:19:17.647Z,105
2019-06-07T12:19:57.523Z,125
2019-06-07T12:20:38.094Z,125
2019-06-07T12:21:19.844Z,125
2019-06-07T12:21:59.253Z,125
2019-06-07T12:22:39.838Z,110
2019-06-07T12:29:33.992Z,130
2019-06-07T12:33:35.700Z,75
2019-06-07T12:34:17.447Z,75
2019-06-07T12:34:56.853Z,110
2019-06-07T12:35:37.408Z,100
2019-06-07T12:36:17.993Z,115
2019-06-07T12:36:58.558Z,110
2019-06-07T12:37:44.058Z,115
2019-06-07T12:38:21.023Z,115
2019-06-07T12:39:00.274Z,115
2019-06-07T12:45:05.390Z,110
2019-06-07T12:45:45.952Z,110
2019-06-07T12:46:28.579Z,115
2019-06-07T12:47:07.089Z,115
2019-06-07T12:47:47.678Z,115
2019-06-07T12:48:28.255Z,110
2019-06-07T12:49:08.820Z,110
2019-06-07T12:49:49.385Z,110
2019-06-07T12:50:42.393Z,110
2019-06-07T12:57:16.205Z,115
2019-06-07T12:57:56.386Z,115
2019-06-07T12:58:39.418Z,100
2019-06-07T12:59:17.922Z,65
2019-06-07T12:59:57.937Z,65
2019-06-07T13:00:38.510Z,95
2019-06-07T13:01:20.826Z,115
2019-06-07T13:02:02.365Z,110
2019-06-07T13:02:40.212Z,115
2019-06-07T13:08:45.419Z,115
2019-06-07T13:09:25.992Z,115
2019-06-07T13:10:06.571Z,115
2019-06-07T13:10:47.116Z,115
2019-06-07T13:11:31.205Z,115
2019-06-07T13:12:08.257Z,120
2019-06-07T13:12:48.818Z,120
2019-06-07T13:13:29.399Z,120
2019-06-07T13:14:10.211Z,120
2019-06-07T13:20:16.099Z,85
2019-06-07T13:20:55.946Z,120
2019-06-07T13:21:36.538Z,120
2019-06-07T13:22:18.283Z,120
2019-06-07T13:22:57.691Z,120
2019-06-07T13:23:38.268Z,120
2019-06-07T13:24:19.323Z,120
2019-06-07T13:24:59.702Z,120
2019-06-07T13:25:45.894Z,120
2019-06-07T13:32:25.633Z,120
2019-06-07T13:33:06.208Z,120
2019-06-07T13:33:46.780Z,120
2019-06-07T13:34:28.105Z,120
2019-06-07T13:35:07.958Z,120
2019-06-07T13:35:48.520Z,115
2019-06-07T13:36:29.089Z,75
2019-06-07T13:37:09.707Z,80
2019-06-07T13:37:50.273Z,120
2019-06-07T13:43:55.424Z,110
2019-06-07T13:44:36.004Z,120
2019-06-07T13:45:17.863Z,120
2019-06-07T13:45:57.190Z,120
2019-06-07T13:46:37.756Z,120
2019-06-07T13:47:18.912Z,120
2019-06-07T13:47:58.897Z,120
2019-06-07T13:48:39.466Z,120
2019-06-07T13:49:21.399Z,120
2019-06-07T13:56:05.796Z,120
2019-06-07T13:57:01.164Z,120
2019-06-07T13:57:28.073Z,120
2019-06-07T13:58:07.530Z,120
2019-06-07T13:58:48.105Z,120
2019-06-07T13:59:28.719Z,125
2019-06-07T14:00:10.561Z,120
2019-06-07T14:00:49.853Z,120
2019-06-07T14:07:35.584Z,120
2019-06-07T14:08:16.153Z,120
2019-06-07T14:08:56.730Z,120
2019-06-07T14:09:37.305Z,120
2019-06-07T14:10:19.258Z,120
2019-06-07T14:10:58.440Z,120
2019-06-07T14:11:49.800Z,120
2019-06-07T14:12:19.594Z,125
2019-06-07T14:13:00.221Z,130
2019-06-07T14:19:05.596Z,130
2019-06-07T14:19:46.175Z,130
2019-06-07T14:20:31.284Z,130
2019-06-07T14:21:07.309Z,130
2019-06-07T14:21:47.875Z,130
2019-06-07T14:22:28.979Z,130
2019-06-07T14:23:09.003Z,130
2019-06-07T14:23:49.636Z,130
2019-06-07T14:24:31.183Z,130
2019-06-07T14:30:35.314Z,130
2019-06-07T14:31:15.884Z,130
2019-06-07T14:31:56.463Z,130
2019-06-07T14:32:37.051Z,130
2019-06-07T14:33:17.681Z,130
2019-06-07T14:33:58.241Z,130
2019-06-07T14:34:38.799Z,130
2019-06-07T14:35:19.391Z,130
2019-06-07T14:35:59.992Z,130
2019-06-07T14:42:45.758Z,130
2019-06-07T14:43:27.519Z,130
2019-06-07T14:44:06.893Z,130
2019-06-07T14:44:47.466Z,130
2019-06-07T14:45:28.044Z,125
2019-06-07T14:46:08.655Z,130
2019-06-07T14:46:49.222Z,130
2019-06-07T14:47:30.013Z,130
2019-06-07T14:48:10.363Z,110
2019-06-07T14:54:15.554Z,130
2019-06-07T14:54:56.119Z,130
2019-06-07T14:55:36.710Z,120
2019-06-07T14:56:17.339Z,105
2019-06-07T14:56:57.908Z,130
2019-06-07T14:57:38.522Z,130
2019-06-07T14:58:19.105Z,130
2019-06-07T14:58:59.690Z,130
2019-06-07T14:59:40.242Z,130
2019-06-07T15:05:45.517Z,130
2019-06-07T15:09:24.877Z,130
2019-06-07T15:10:05.439Z,130
2019-06-07T15:10:46.003Z,130
2019-06-07T15:11:26.833Z,130
2019-06-07T15:15:30.777Z,130
2019-06-07T15:16:10.596Z,130
2019-06-07T15:16:51.183Z,125
2019-06-07T15:17:33.205Z,125
2019-06-07T15:19:44.606Z,125
2019-06-07T15:20:25.202Z,125
2019-06-07T15:21:05.818Z,125
2019-06-07T15:21:46.358Z,130
2019-06-07T15:25:09.450Z,125
2019-06-07T15:25:50.058Z,125
2019-06-07T15:26:30.653Z,125
2019-06-07T15:27:11.323Z,125
2019-06-07T15:27:52.061Z,125
2019-06-07T15:28:33.746Z,125
2019-06-07T15:29:13.287Z,120
2019-06-07T15:29:53.845Z,120
2019-06-07T15:35:59.168Z,120
2019-06-07T15:36:39.791Z,120
2019-06-07T15:37:20.388Z,120
2019-06-07T15:38:00.976Z,120
2019-06-07T15:38:41.592Z,125
2019-06-07T15:39:22.160Z,120
2019-06-07T15:40:02.944Z,120
2019-06-07T15:40:43.386Z,120
2019-06-07T15:41:23.968Z,115
2019-06-07T15:47:29.582Z,115
2019-06-07T15:48:10.084Z,115
2019-06-07T15:48:50.657Z,115
2019-06-07T15:49:31.946Z,115
2019-06-07T15:50:11.790Z,115
2019-06-07T15:50:52.385Z,115
2019-06-07T15:51:34.325Z,115
2019-06-07T15:52:13.553Z,115
2019-06-07T15:52:54.136Z,115
2019-06-07T15:58:59.516Z,110
2019-06-07T15:59:41.445Z,110
2019-06-07T16:00:20.913Z,110
2019-06-07T16:01:01.326Z,110
2019-06-07T16:01:42.293Z,110
2019-06-07T16:02:22.495Z,110
2019-06-07T16:03:03.146Z,110
2019-06-07T16:03:43.734Z,110
2019-06-07T16:09:49.326Z,110
2019-06-07T16:10:29.910Z,110
2019-06-07T16:11:10.607Z,110
2019-06-07T16:11:51.199Z,110
2019-06-07T16:12:32.462Z,110
2019-06-07T16:13:12.457Z,110
2019-06-07T16:13:53.074Z,110
2019-06-07T16:14:35.013Z,110
2019-06-07T16:20:39.538Z,105
2019-06-07T16:21:19.747Z,105
2019-06-07T16:22:00.366Z,105
2019-06-07T16:22:41.975Z,105
2019-06-07T16:23:21.579Z,105
2019-06-07T16:24:02.164Z,105
2019-06-07T16:24:43.860Z,105
2019-06-07T16:25:23.329Z,105
2019-06-07T16:26:03.916Z,105
2019-06-07T16:32:09.539Z,100
2019-06-07T16:32:50.229Z,100
2019-06-07T16:33:30.792Z,100
2019-06-07T16:34:11.377Z,100
2019-06-07T16:34:52.022Z,100
2019-06-07T16:35:32.616Z,100
2019-06-07T16:36:13.265Z,100
2019-06-07T16:36:53.914Z,100
2019-06-07T16:43:16.073Z,95
2019-06-07T16:43:40.523Z,95
2019-06-07T16:44:20.694Z,95
2019-06-07T16:45:01.336Z,95
2019-06-07T16:45:42.796Z,90
2019-06-07T16:46:22.682Z,90
2019-06-07T16:47:03.268Z,90
2019-06-07T16:47:47.089Z,90
2019-06-07T16:53:49.278Z,85
2019-06-07T16:54:29.922Z,85
2019-06-07T16:55:10.544Z,85
2019-06-07T16:55:51.111Z,85
2019-06-07T16:56:31.684Z,85
2019-06-07T16:57:12.280Z,85
2019-06-07T16:57:52.870Z,80
2019-06-07T16:58:33.459Z,80
2019-06-07T16:59:14.068Z,80
2019-06-07T17:05:19.562Z,75
2019-06-07T17:06:00.168Z,75
2019-06-07T17:06:41.662Z,75
2019-06-07T17:07:21.621Z,75
2019-06-07T17:08:02.195Z,75
2019-06-07T17:08:44.213Z,75
2019-06-07T17:09:23.461Z,75
2019-06-07T17:14:09.686Z,70
2019-06-07T17:14:50.252Z,70
2019-06-07T17:15:30.876Z,70
2019-06-07T17:16:11.789Z,70
2019-06-07T17:16:52.423Z,70
2019-06-07T17:17:33.081Z,70
2019-06-07T17:21:12.756Z,65
2019-06-07T17:21:53.398Z,65
2019-06-07T17:22:34.033Z,65
2019-06-07T17:23:15.081Z,65
2019-06-07T17:25:57.688Z,60
2019-06-07T17:26:39.381Z,65
2019-06-07T17:27:18.952Z,65
2019-06-07T17:27:59.582Z,65
2019-06-07T17:28:41.609Z,65
2019-06-07T17:29:20.719Z,65
